< < Back
Terminal Aerodrome Forecast


Current Version              Previous Versions:   1  2  3  4  5  6  7  8  9  

Terminal Aerodrome Forecast

039
FTUS42 KMLB 172100 AAA
TAFMCO
TAF AMD
KMCO 172101Z 1721/1818 28009KT P6SM FEW250
     FM180000 32004KT P6SM BKN250=



Latest METAR

195
SAUS70 KWBC 180200 RRF
MTRMCO
METAR KMCO 180153Z 30005KT 10SM OVC250 16/08 A3015 RMK AO2 SLP208
T01610083


USA.gov is the U.S. government's official web portal to all federal, state and local government web resources and services.